createdAt,value
2018-12-14T14:04:43.403Z,26.08
2018-12-14T14:07:09.871Z,26.51
2018-12-14T14:09:36.313Z,26.41
2018-12-14T14:12:02.737Z,25.57
2018-12-14T14:14:29.068Z,25.98
2018-12-14T14:16:55.532Z,25.76
2018-12-14T14:19:21.943Z,26.18
2018-12-14T14:21:48.269Z,25.54
2018-12-14T14:24:14.687Z,26.27
2018-12-14T14:26:44.501Z,26.41
2018-12-14T14:29:07.450Z,26.52
2018-12-14T14:31:33.932Z,26.70
2018-12-14T14:34:00.358Z,27.16
2018-12-14T14:36:26.768Z,27.03
2018-12-14T14:38:53.099Z,26.96
2018-12-14T14:41:19.518Z,26.94
2018-12-14T14:43:45.895Z,26.70
2018-12-14T14:46:12.240Z,26.80
2018-12-14T14:48:38.626Z,26.95
2018-12-14T14:51:05.025Z,26.99
2018-12-14T14:53:31.457Z,27.34
2018-12-14T14:55:57.816Z,26.99
2018-12-14T14:58:24.218Z,27.15
2018-12-14T15:00:50.548Z,27.21
2018-12-14T15:03:16.984Z,27.09
2018-12-14T15:05:43.380Z,27.25
2018-12-14T15:08:09.717Z,27.21
2018-12-14T15:10:36.097Z,26.97
2018-12-14T15:13:02.566Z,26.98
2018-12-14T15:15:29.011Z,26.99
2018-12-14T15:17:55.414Z,26.76
2018-12-14T15:20:21.705Z,27.03
2018-12-14T15:22:48.057Z,27.03
2018-12-14T15:25:14.386Z,26.97
2018-12-14T15:27:40.799Z,26.99
2018-12-14T15:30:07.199Z,27.22
2018-12-14T15:32:33.572Z,27.12
2018-12-14T15:34:59.891Z,27.27
2018-12-14T15:37:26.272Z,27.00
2018-12-14T15:39:52.604Z,27.12
2018-12-14T15:42:18.994Z,26.88
2018-12-14T15:44:45.308Z,27.15
2018-12-14T15:47:11.686Z,26.96
2018-12-14T15:49:38.018Z,26.96
2018-12-14T15:52:04.461Z,27.02
2018-12-14T15:54:30.924Z,27.02
2018-12-14T15:56:57.300Z,27.23
2018-12-14T15:59:23.626Z,26.99
2018-12-14T16:01:49.986Z,26.84
2018-12-14T16:04:16.321Z,26.88
2018-12-14T16:06:42.660Z,26.82
2018-12-14T16:09:09.054Z,26.91
2018-12-14T16:11:35.380Z,26.83
2018-12-14T16:14:01.727Z,26.72
2018-12-14T16:16:28.068Z,26.82
2018-12-14T16:18:54.462Z,26.68
2018-12-14T16:21:20.797Z,26.89
2018-12-14T16:23:47.169Z,26.70
2018-12-14T16:26:13.506Z,26.83
2018-12-14T16:28:39.936Z,26.83
2018-12-14T16:31:06.227Z,26.68
2018-12-14T16:33:32.560Z,26.80
2018-12-14T16:35:58.890Z,26.67
2018-12-14T16:38:25.228Z,26.63
2018-12-14T16:40:51.603Z,26.64
2018-12-14T16:43:18.004Z,26.79
2018-12-14T16:45:44.428Z,26.72
2018-12-14T16:48:10.758Z,26.76
2018-12-14T16:50:37.153Z,26.68
2018-12-14T16:53:03.489Z,26.79
2018-12-14T16:55:29.829Z,26.78
2018-12-14T16:57:56.218Z,26.71
2018-12-14T17:00:22.517Z,26.85
2018-12-14T17:02:48.855Z,26.87
2018-12-14T17:05:15.278Z,26.86
2018-12-14T17:07:41.631Z,26.79
2018-12-14T17:10:08.111Z,26.83
2018-12-14T17:12:34.465Z,26.81
2018-12-14T17:15:00.837Z,26.83
2018-12-14T17:17:27.145Z,26.76
2018-12-14T17:19:53.491Z,26.77
2018-12-14T17:22:19.892Z,26.64
2018-12-14T17:24:46.239Z,26.68
2018-12-14T17:27:12.576Z,26.47
2018-12-14T17:29:38.915Z,26.57
2018-12-14T17:32:05.284Z,26.67
2018-12-14T17:34:31.687Z,26.83
2018-12-14T17:36:58.040Z,26.79
2018-12-14T17:39:24.429Z,26.86
2018-12-14T17:41:50.779Z,26.76
2018-12-14T17:44:17.110Z,26.86
2018-12-14T17:46:43.500Z,26.90
2018-12-14T17:49:09.828Z,26.75
2018-12-14T17:51:36.260Z,26.88
2018-12-14T17:54:02.719Z,26.67
2018-12-14T17:56:29.125Z,26.69
2018-12-14T17:58:55.459Z,26.77
2018-12-14T18:01:21.890Z,26.86
2018-12-14T18:03:48.366Z,26.83
2018-12-14T18:06:14.734Z,27.23
2018-12-14T18:08:41.102Z,27.11
2018-12-14T18:11:07.436Z,27.10
2018-12-14T18:13:33.762Z,27.27
2018-12-14T18:16:00.156Z,27.30
2018-12-14T18:18:26.502Z,27.28
2018-12-14T18:20:52.818Z,27.31
2018-12-14T18:23:19.139Z,27.31
2018-12-14T18:25:45.625Z,27.23
2018-12-14T18:28:11.975Z,27.28
2018-12-14T18:30:38.393Z,27.25
2018-12-14T18:33:04.756Z,27.27
2018-12-14T18:35:31.116Z,27.46
2018-12-14T18:37:57.398Z,27.40
2018-12-14T18:40:23.794Z,27.39
2018-12-14T18:42:50.101Z,27.44
2018-12-14T18:45:16.498Z,27.56
2018-12-14T18:47:42.941Z,27.50
2018-12-14T18:50:09.374Z,27.55
2018-12-14T18:52:35.722Z,27.54
2018-12-14T18:55:02.075Z,27.85
2018-12-14T18:57:28.436Z,28.06
2018-12-14T18:59:54.768Z,28.32
2018-12-14T19:02:21.094Z,28.23
2018-12-14T19:04:47.447Z,28.28
2018-12-14T19:07:13.819Z,28.24
2018-12-14T19:09:40.166Z,28.36
2018-12-14T19:12:06.521Z,28.46
2018-12-14T19:14:32.913Z,28.31
2018-12-14T19:16:59.354Z,28.51
2018-12-14T19:19:25.705Z,28.50
2018-12-14T19:21:53.366Z,28.50
2018-12-14T19:24:18.522Z,28.66
2018-12-14T19:26:44.936Z,28.50
2018-12-14T19:29:11.285Z,28.62
2018-12-14T19:31:37.658Z,28.59
2018-12-14T19:34:04.014Z,28.77
2018-12-14T19:36:30.550Z,28.83
2018-12-14T19:38:56.877Z,28.51
2018-12-14T19:41:23.273Z,28.66
2018-12-14T19:43:49.660Z,28.54
2018-12-14T19:46:16.097Z,28.85
2018-12-14T19:48:42.425Z,28.93
2018-12-14T19:51:08.777Z,28.59
2018-12-14T19:53:35.125Z,28.82
2018-12-14T19:56:01.565Z,28.87
2018-12-14T19:58:27.877Z,28.81
2018-12-14T20:00:54.240Z,28.87
2018-12-14T20:03:20.573Z,28.77
2018-12-14T20:05:46.903Z,28.95
2018-12-14T20:08:13.273Z,28.82
2018-12-14T20:10:39.592Z,28.98
2018-12-14T20:13:06.110Z,29.17
2018-12-14T20:15:32.447Z,29.06
2018-12-14T20:17:58.844Z,29.13
2018-12-14T20:20:25.236Z,29.04
2018-12-14T20:22:51.571Z,29.00
2018-12-14T20:25:17.860Z,28.98
2018-12-14T20:27:44.178Z,29.12
2018-12-14T20:30:10.516Z,28.96
2018-12-14T20:32:36.857Z,29.31
2018-12-14T20:35:03.329Z,29.18
2018-12-14T20:37:29.639Z,29.14
2018-12-14T20:39:55.976Z,29.12
2018-12-14T20:42:22.320Z,29.21
2018-12-14T20:44:48.639Z,29.44
2018-12-14T20:47:15.066Z,29.56
2018-12-14T20:49:41.378Z,29.28
2018-12-14T20:52:07.705Z,29.22
2018-12-14T20:54:34.050Z,29.27
2018-12-14T20:57:00.473Z,29.22
2018-12-14T20:59:26.880Z,29.46
2018-12-14T21:01:53.214Z,29.43
2018-12-14T21:04:19.624Z,29.72
2018-12-14T21:06:45.964Z,29.48
2018-12-14T21:09:12.320Z,29.45
2018-12-14T21:11:38.959Z,29.37
2018-12-14T21:14:05.362Z,29.37
2018-12-14T21:16:31.698Z,29.42
2018-12-14T21:18:58.032Z,29.49
2018-12-14T21:21:24.409Z,29.53
2018-12-14T21:23:50.791Z,29.41
2018-12-14T21:26:17.102Z,29.50
2018-12-14T21:28:43.486Z,29.47
2018-12-14T21:31:09.816Z,29.79
2018-12-14T21:33:36.194Z,29.74
2018-12-14T21:36:02.547Z,29.80
2018-12-14T21:38:28.919Z,29.56
2018-12-14T21:40:55.244Z,29.59
2018-12-14T21:43:21.609Z,29.75
2018-12-14T21:45:47.950Z,29.71
2018-12-14T21:48:14.282Z,29.86
2018-12-14T21:50:40.640Z,29.95
2018-12-14T21:53:07.075Z,29.98
2018-12-14T21:55:33.403Z,29.90
2018-12-14T21:57:59.725Z,29.96
2018-12-14T22:00:26.107Z,29.95
2018-12-14T22:02:52.429Z,29.91
2018-12-14T22:05:18.767Z,29.91
2018-12-14T22:07:45.089Z,29.72
2018-12-14T22:10:11.482Z,29.78
2018-12-14T22:12:37.808Z,29.78
2018-12-14T22:15:04.195Z,29.85
2018-12-14T22:17:30.524Z,30.07
2018-12-14T22:19:56.842Z,30.16
2018-12-14T22:22:23.172Z,30.10
2018-12-14T22:24:49.557Z,30.05
2018-12-14T22:27:15.874Z,30.03
2018-12-14T22:29:42.207Z,29.94
2018-12-14T22:32:08.550Z,30.19
2018-12-14T22:34:34.876Z,30.01
2018-12-14T22:37:01.219Z,30.01
2018-12-14T22:39:27.550Z,30.17
2018-12-14T22:41:53.919Z,30.23
2018-12-14T22:44:21.490Z,30.19
2018-12-14T22:46:46.671Z,30.27
2018-12-14T22:49:12.961Z,30.34
2018-12-14T22:51:39.338Z,30.33
2018-12-14T22:54:05.665Z,30.36
2018-12-14T22:56:32.055Z,30.33
2018-12-14T22:58:58.385Z,30.51
2018-12-14T23:01:24.699Z,30.56
2018-12-14T23:03:51.036Z,30.43
2018-12-14T23:06:17.370Z,30.59
2018-12-14T23:08:43.710Z,30.62
2018-12-14T23:11:10.051Z,30.62
2018-12-14T23:13:36.384Z,30.59
2018-12-14T23:16:02.734Z,30.53
2018-12-14T23:18:29.132Z,30.55
2018-12-14T23:20:55.446Z,30.56
2018-12-14T23:23:21.815Z,30.46
2018-12-14T23:25:48.611Z,30.78
2018-12-14T23:28:14.566Z,30.79
2018-12-14T23:30:40.906Z,30.64
2018-12-14T23:33:07.253Z,30.84
2018-12-14T23:35:33.582Z,30.88
2018-12-14T23:37:59.924Z,30.72
2018-12-14T23:40:26.262Z,30.72
2018-12-14T23:42:52.591Z,30.71
2018-12-14T23:45:19.020Z,30.62
2018-12-14T23:47:45.431Z,30.62
2018-12-14T23:50:11.748Z,30.70
2018-12-14T23:52:38.077Z,30.56
2018-12-14T23:55:04.361Z,30.79
2018-12-14T23:57:30.740Z,30.71
2018-12-14T23:59:57.011Z,30.79
